createdAt,value
2019-05-05T00:01:28.754Z,99.90
2019-05-05T00:04:10.854Z,99.90
2019-05-05T00:06:39.259Z,99.90
2019-05-05T00:09:08.340Z,99.90
2019-05-05T00:11:54.765Z,99.90
2019-05-05T00:14:30.993Z,99.90
2019-05-05T00:17:15.905Z,99.90
2019-05-05T00:19:45.435Z,99.90
2019-05-05T00:22:15.155Z,99.90
2019-05-05T00:24:44.397Z,99.90
2019-05-05T00:27:14.925Z,99.90
2019-05-05T00:29:45.151Z,99.90
2019-05-05T00:32:15.354Z,99.90
2019-05-05T00:34:44.463Z,99.90
2019-05-05T00:37:15.248Z,99.90
2019-05-05T00:39:45.210Z,99.90
2019-05-05T00:42:15.418Z,99.90
2019-05-05T00:44:44.729Z,99.90
2019-05-05T00:47:26.841Z,99.90
2019-05-05T00:49:56.298Z,99.90
2019-05-05T00:52:24.927Z,99.90
2019-05-05T00:54:55.442Z,99.90
2019-05-05T00:57:24.319Z,99.90
2019-05-05T00:59:54.409Z,99.90
2019-05-05T01:02:30.314Z,99.90
2019-05-05T01:05:09.480Z,99.90
2019-05-05T01:07:37.883Z,99.90
2019-05-05T01:10:07.331Z,99.90
2019-05-05T01:12:35.723Z,99.90
2019-05-05T01:15:04.925Z,99.90
2019-05-05T01:17:34.501Z,99.90
2019-05-05T01:20:06.993Z,99.90
2019-05-05T01:22:34.791Z,99.90
2019-05-05T01:25:05.430Z,99.90
2019-05-05T01:27:34.729Z,99.90
2019-05-05T01:30:07.973Z,99.90
2019-05-05T01:32:44.625Z,99.90
2019-05-05T01:35:14.415Z,99.90
2019-05-05T01:37:54.831Z,99.90
2019-05-05T01:40:36.855Z,99.90
2019-05-05T01:43:05.428Z,99.90
2019-05-05T01:45:34.785Z,99.90
2019-05-05T01:48:04.871Z,99.90
2019-05-05T01:50:34.941Z,99.90
2019-05-05T01:53:04.752Z,99.90
2019-05-05T01:55:34.690Z,99.90
2019-05-05T01:58:04.747Z,99.90
2019-05-05T02:00:34.756Z,99.90
2019-05-05T02:03:04.505Z,99.90
2019-05-05T02:05:34.859Z,99.90
2019-05-05T02:08:04.949Z,99.90
2019-05-05T02:10:34.926Z,99.90
2019-05-05T02:13:04.682Z,99.90
2019-05-05T02:15:34.361Z,99.90
2019-05-05T02:18:04.487Z,99.90
2019-05-05T02:20:51.578Z,99.90
2019-05-05T02:23:20.126Z,99.90
2019-05-05T02:25:48.610Z,99.90
2019-05-05T02:28:17.000Z,99.90
2019-05-05T02:30:49.515Z,99.90
2019-05-05T02:33:19.750Z,99.90
2019-05-05T02:35:48.244Z,99.90
2019-05-05T02:38:17.991Z,99.90
2019-05-05T02:40:47.226Z,99.90
2019-05-05T02:43:18.078Z,99.90
2019-05-05T02:46:16.223Z,99.90
2019-05-05T02:48:47.070Z,99.90
2019-05-05T02:51:16.612Z,99.90
2019-05-05T02:53:48.191Z,99.90
2019-05-05T02:56:23.738Z,99.90
2019-05-05T02:58:55.127Z,99.90
2019-05-05T03:01:31.270Z,99.90
2019-05-05T03:04:01.314Z,99.90
2019-05-05T03:06:29.783Z,99.90
2019-05-05T03:08:58.938Z,99.90
2019-05-05T03:11:30.183Z,99.90
2019-05-05T03:14:01.530Z,99.90
2019-05-05T03:16:38.407Z,99.90
2019-05-05T03:19:08.651Z,99.90
2019-05-05T03:21:37.417Z,99.90
2019-05-05T03:24:06.902Z,99.90
2019-05-05T03:26:35.939Z,99.90
2019-05-05T03:29:06.724Z,99.90
2019-05-05T03:31:35.444Z,99.90
2019-05-05T03:34:05.968Z,99.90
2019-05-05T03:36:35.170Z,99.90
2019-05-05T03:39:05.725Z,99.90
2019-05-05T03:41:54.300Z,99.90
2019-05-05T03:44:27.468Z,99.90
2019-05-05T03:46:55.861Z,99.90
2019-05-05T03:49:24.821Z,99.90
2019-05-05T03:51:54.310Z,99.90
2019-05-05T03:54:23.884Z,99.90
2019-05-05T03:56:54.533Z,99.90
2019-05-05T03:59:24.337Z,99.90
2019-05-05T04:01:54.663Z,99.90
2019-05-05T04:04:24.759Z,99.90
2019-05-05T04:06:54.549Z,99.90
2019-05-05T04:09:24.242Z,99.90
2019-05-05T04:11:53.931Z,99.90
2019-05-05T04:14:24.763Z,99.90
2019-05-05T04:16:54.684Z,99.90
2019-05-05T04:19:24.781Z,99.90
2019-05-05T04:21:53.671Z,99.90
2019-05-05T04:24:23.877Z,99.90
2019-05-05T04:26:54.468Z,99.90
2019-05-05T04:29:24.354Z,99.90
2019-05-05T04:31:54.028Z,99.90
2019-05-05T04:34:24.116Z,99.90
2019-05-05T04:36:54.618Z,99.90
2019-05-05T04:39:23.642Z,99.90
2019-05-05T04:41:54.347Z,99.90
2019-05-05T04:44:23.624Z,99.90
2019-05-05T04:46:54.626Z,99.90
2019-05-05T04:49:40.042Z,99.90
2019-05-05T04:52:10.085Z,99.90
2019-05-05T04:54:48.845Z,99.90
2019-05-05T04:57:17.262Z,99.90
2019-05-05T04:59:46.716Z,99.90
2019-05-05T05:02:19.641Z,99.90
2019-05-05T05:04:55.410Z,99.90
2019-05-05T05:07:24.282Z,99.90
2019-05-05T05:09:54.037Z,99.90
2019-05-05T05:12:23.682Z,99.90
2019-05-05T05:14:54.488Z,99.90
2019-05-05T05:17:24.862Z,99.90
2019-05-05T05:19:54.229Z,99.90
2019-05-05T05:22:24.295Z,99.90
2019-05-05T05:24:54.120Z,99.90
2019-05-05T05:27:24.494Z,99.90
2019-05-05T05:29:54.353Z,99.90
2019-05-05T05:32:24.765Z,99.90
2019-05-05T05:34:54.315Z,99.90
2019-05-05T05:37:24.036Z,99.90
2019-05-05T05:39:59.555Z,99.90
2019-05-05T05:42:37.570Z,99.90
2019-05-05T05:45:11.642Z,99.90
2019-05-05T05:47:58.740Z,99.90
2019-05-05T05:50:30.463Z,99.90
2019-05-05T05:52:59.282Z,99.90
2019-05-05T05:55:34.169Z,99.90
2019-05-05T06:00:53.839Z,99.90
2019-05-05T06:03:24.405Z,99.90
2019-05-05T06:05:54.040Z,99.90
2019-05-05T06:08:24.471Z,99.90
2019-05-05T06:10:55.125Z,99.90
2019-05-05T06:13:26.989Z,99.90
2019-05-05T06:15:57.574Z,99.90
2019-05-05T06:18:26.013Z,99.90
2019-05-05T06:20:54.414Z,99.90
2019-05-05T06:23:23.976Z,99.90
2019-05-05T06:25:54.870Z,99.90
2019-05-05T06:28:23.649Z,99.90
2019-05-05T06:30:54.435Z,99.90
2019-05-05T06:33:24.166Z,99.90
2019-05-05T06:35:53.555Z,99.90
2019-05-05T06:38:24.225Z,99.90
2019-05-05T06:40:54.412Z,99.90
2019-05-05T06:43:34.844Z,99.90
2019-05-05T06:46:14.611Z,99.90
2019-05-05T06:48:43.869Z,99.90
2019-05-05T06:51:14.077Z,99.90
2019-05-05T06:53:43.525Z,99.90
2019-05-05T06:56:14.648Z,99.90
2019-05-05T06:58:44.823Z,99.90
2019-05-05T07:01:14.306Z,99.90
2019-05-05T07:03:43.815Z,99.90
2019-05-05T07:06:14.160Z,99.90
2019-05-05T07:08:43.880Z,99.90
2019-05-05T07:11:14.362Z,99.90
2019-05-05T07:13:44.342Z,99.90
2019-05-05T07:16:15.023Z,99.90
2019-05-05T07:18:44.606Z,99.90
2019-05-05T07:21:14.223Z,99.90
2019-05-05T07:23:44.593Z,99.90
2019-05-05T07:26:14.384Z,99.90
2019-05-05T07:28:44.713Z,99.90
2019-05-05T07:31:14.334Z,99.90
2019-05-05T07:33:43.796Z,99.90
2019-05-05T07:36:16.759Z,99.90
2019-05-05T07:38:46.800Z,99.90
2019-05-05T07:41:15.206Z,99.90
2019-05-05T07:43:43.816Z,99.90
2019-05-05T07:46:13.545Z,99.90
2019-05-05T07:48:44.060Z,99.90
2019-05-05T07:51:14.165Z,99.90
2019-05-05T07:53:44.204Z,99.90
2019-05-05T07:56:14.498Z,99.90
2019-05-05T07:58:43.909Z,99.90
2019-05-05T08:01:14.157Z,99.90
2019-05-05T08:03:44.610Z,99.90
2019-05-05T08:06:14.535Z,99.90
2019-05-05T08:08:44.323Z,99.90
2019-05-05T08:11:14.780Z,99.90
2019-05-05T08:13:44.299Z,99.90
2019-05-05T08:16:27.029Z,99.90
2019-05-05T08:19:13.805Z,99.90
2019-05-05T08:21:43.726Z,99.90
2019-05-05T08:24:14.059Z,99.90
2019-05-05T08:26:44.345Z,99.90
2019-05-05T08:29:30.496Z,99.90
2019-05-05T08:32:04.434Z,99.90
2019-05-05T08:34:33.945Z,99.90
2019-05-05T08:37:04.355Z,99.90
2019-05-05T08:39:34.417Z,99.90
2019-05-05T08:42:04.300Z,99.90
2019-05-05T08:44:34.256Z,99.90
2019-05-05T08:47:04.419Z,99.90
2019-05-05T08:49:34.743Z,99.90
2019-05-05T08:52:03.999Z,99.90
2019-05-05T08:54:34.364Z,99.90
2019-05-05T08:57:04.257Z,99.90
2019-05-05T08:59:33.691Z,99.90
2019-05-05T09:02:04.346Z,99.90
2019-05-05T09:04:34.035Z,99.90
2019-05-05T09:07:04.842Z,99.90
2019-05-05T09:09:33.496Z,99.90
2019-05-05T09:12:04.268Z,99.90
2019-05-05T09:14:34.421Z,99.90
2019-05-05T09:17:04.260Z,99.90
2019-05-05T09:19:34.405Z,99.90
2019-05-05T09:22:04.874Z,98.80
2019-05-05T09:24:34.374Z,98.60
2019-05-05T09:27:20.670Z,99.90
2019-05-05T09:29:49.073Z,99.90
2019-05-05T09:32:17.480Z,99.90
2019-05-05T09:34:45.902Z,99.20
2019-05-05T09:37:14.488Z,97.50
2019-05-05T09:39:43.697Z,98.60
2019-05-05T09:42:14.298Z,92.60
2019-05-05T09:44:43.773Z,81.90
2019-05-05T09:47:13.670Z,70.50
2019-05-05T09:49:44.365Z,60.60
2019-05-05T09:52:13.978Z,58.10
2019-05-05T09:54:43.835Z,51.80
2019-05-05T09:57:14.440Z,50.20
2019-05-05T09:59:44.197Z,47.60
2019-05-05T10:02:13.118Z,46.50
2019-05-05T10:04:41.581Z,46.70
2019-05-05T10:07:09.978Z,47.30
2019-05-05T10:09:38.397Z,44.50
2019-05-05T10:12:06.870Z,39.40
2019-05-05T10:14:35.282Z,35.70
2019-05-05T10:17:04.860Z,32.90
2019-05-05T10:19:33.526Z,35.10
2019-05-05T10:22:03.889Z,34.60
2019-05-05T10:24:33.973Z,37.20
2019-05-05T10:27:04.699Z,34.30
2019-05-05T10:29:32.782Z,34.70
2019-05-05T10:32:01.258Z,36.60
2019-05-05T10:34:29.666Z,41.90
2019-05-05T10:36:58.064Z,43.80
2019-05-05T10:39:31.086Z,46.70
2019-05-05T10:41:59.486Z,47.80
2019-05-05T10:44:27.895Z,48.70
2019-05-05T10:46:56.292Z,50.40
2019-05-05T10:49:33.685Z,49.70
2019-05-05T10:52:03.667Z,52.50
2019-05-05T10:54:43.330Z,51.80
2019-05-05T10:57:04.018Z,55.10
2019-05-05T10:59:34.354Z,54.40
2019-05-05T11:02:04.959Z,54.90
2019-05-05T11:04:33.576Z,55.60
2019-05-05T11:07:04.235Z,56.60
2019-05-05T11:09:33.703Z,54.60
2019-05-05T11:12:02.360Z,52.40
2019-05-05T11:14:30.786Z,53.10
2019-05-05T11:16:59.201Z,54.30
2019-05-05T11:19:27.590Z,54.30
2019-05-05T11:21:55.994Z,50.10
2019-05-05T11:24:24.435Z,52.50
2019-05-05T11:26:53.982Z,50.40
2019-05-05T11:29:24.049Z,50.40
2019-05-05T11:31:53.002Z,49.70
2019-05-05T11:34:24.640Z,49.10
2019-05-05T11:36:57.744Z,50.20
2019-05-05T11:39:26.243Z,50.90
2019-05-05T11:41:54.849Z,50.10
2019-05-05T11:44:24.301Z,51.70
2019-05-05T11:46:54.731Z,48.90
2019-05-05T11:49:24.452Z,50.50
2019-05-05T11:51:54.165Z,49.40
2019-05-05T11:54:24.551Z,48.60
2019-05-05T11:56:53.935Z,48.10
2019-05-05T11:59:23.778Z,50.40
2019-05-05T12:01:54.684Z,50.80
2019-05-05T12:04:57.210Z,48.20
2019-05-05T12:07:25.856Z,47.30
2019-05-05T12:09:55.686Z,46.60
2019-05-05T12:12:24.214Z,48.20
2019-05-05T12:14:53.874Z,49.20
2019-05-05T12:17:34.869Z,48.10
2019-05-05T12:20:07.769Z,47.10
2019-05-05T12:22:36.182Z,46.20
2019-05-05T12:25:07.067Z,49.90
2019-05-05T12:27:43.053Z,49.50
2019-05-05T12:30:11.632Z,48.10
2019-05-05T12:32:40.049Z,45.40
2019-05-05T12:35:08.700Z,42.80
2019-05-05T12:37:37.175Z,41.10
2019-05-05T12:40:07.881Z,40.70
2019-05-05T12:42:36.295Z,42.00
2019-05-05T12:45:09.332Z,41.30
2019-05-05T12:47:55.641Z,45.10
2019-05-05T12:50:24.656Z,44.00
2019-05-05T12:52:54.872Z,45.70
2019-05-05T12:55:32.265Z,44.70
2019-05-05T12:57:54.106Z,47.10
2019-05-05T13:00:22.865Z,41.90
2019-05-05T13:02:51.284Z,41.10
2019-05-05T13:05:19.729Z,42.20
2019-05-05T13:07:48.141Z,42.30
2019-05-05T13:10:19.457Z,41.10
2019-05-05T13:12:48.166Z,41.50
2019-05-05T13:16:57.744Z,42.90
2019-05-05T13:19:27.859Z,41.90
2019-05-05T13:22:06.981Z,41.80
2019-05-05T13:24:39.712Z,44.80
2019-05-05T13:27:11.606Z,43.90
2019-05-05T13:29:39.890Z,44.60
2019-05-05T13:32:08.293Z,43.60
2019-05-05T13:34:36.702Z,41.70
2019-05-05T13:37:05.185Z,38.40
2019-05-05T13:39:34.077Z,36.30
2019-05-05T13:42:04.498Z,37.90
2019-05-05T13:44:50.941Z,36.80
2019-05-05T13:47:19.418Z,37.40
2019-05-05T13:49:47.996Z,38.00
2019-05-05T13:52:16.396Z,38.50
2019-05-05T13:54:44.810Z,39.40
2019-05-05T13:57:14.420Z,35.80
2019-05-05T13:59:44.461Z,36.70
2019-05-05T14:02:13.781Z,38.00
2019-05-05T14:04:43.805Z,38.20
2019-05-05T14:07:12.877Z,41.00
2019-05-05T14:09:41.337Z,41.90
2019-05-05T14:12:09.750Z,42.30
2019-05-05T14:14:38.152Z,42.80
2019-05-05T14:17:06.552Z,43.50
2019-05-05T14:19:35.792Z,46.50
2019-05-05T14:22:04.567Z,47.30
2019-05-05T14:24:48.521Z,47.00
2019-05-05T14:27:17.008Z,43.80
2019-05-05T14:29:47.053Z,43.10
2019-05-05T14:32:17.088Z,43.30
2019-05-05T14:34:47.154Z,45.50
2019-05-05T14:37:25.262Z,44.20
2019-05-05T14:39:54.504Z,44.80
2019-05-05T14:42:23.617Z,44.40
2019-05-05T14:44:54.369Z,43.00
2019-05-05T14:47:24.301Z,42.30
2019-05-05T14:49:54.060Z,44.40
2019-05-05T14:52:24.691Z,42.70
2019-05-05T14:54:54.389Z,42.30
2019-05-05T14:57:24.809Z,42.30
2019-05-05T14:59:54.012Z,43.10
2019-05-05T15:02:24.268Z,46.90
2019-05-05T15:04:53.951Z,43.50
2019-05-05T15:07:44.338Z,43.30
2019-05-05T15:10:17.463Z,45.00
2019-05-05T15:12:50.473Z,43.90
2019-05-05T15:15:18.869Z,44.60
2019-05-05T15:17:47.290Z,44.40
2019-05-05T15:20:15.882Z,46.80
2019-05-05T15:22:44.290Z,48.50
2019-05-05T15:25:12.788Z,48.60
2019-05-05T15:27:41.282Z,50.30
2019-05-05T15:30:10.155Z,51.70
2019-05-05T15:32:38.558Z,50.50
2019-05-05T15:35:07.201Z,51.00
2019-05-05T15:37:35.606Z,45.20
2019-05-05T15:40:04.877Z,44.40
2019-05-05T15:42:33.547Z,44.50
2019-05-05T15:45:03.838Z,45.70
2019-05-05T15:47:34.095Z,43.80
2019-05-05T15:50:04.302Z,44.40
2019-05-05T15:52:34.713Z,44.80
2019-05-05T15:55:04.524Z,48.10
2019-05-05T15:57:33.540Z,47.50
2019-05-05T16:00:02.659Z,46.00
2019-05-05T16:02:31.074Z,48.00
2019-05-05T16:04:59.518Z,48.40
2019-05-05T16:07:28.018Z,47.00
2019-05-05T16:09:56.479Z,47.60
2019-05-05T16:12:31.977Z,48.10
2019-05-05T16:15:13.834Z,46.80
2019-05-05T16:17:44.322Z,48.70
2019-05-05T16:20:14.697Z,47.70
2019-05-05T16:22:44.755Z,46.40
2019-05-05T16:25:16.514Z,48.10
2019-05-05T16:27:45.009Z,47.90
2019-05-05T16:30:16.185Z,47.00
2019-05-05T16:32:44.596Z,48.80
2019-05-05T16:35:14.462Z,49.00
2019-05-05T16:37:43.139Z,47.60
2019-05-05T16:40:14.452Z,48.50
2019-05-05T16:42:43.747Z,49.50
2019-05-05T16:45:16.493Z,49.80
2019-05-05T16:47:44.717Z,50.20
2019-05-05T16:50:13.636Z,49.20
2019-05-05T16:53:03.761Z,47.40
2019-05-05T16:55:34.493Z,47.00
2019-05-05T16:58:04.060Z,47.00
2019-05-05T17:00:34.513Z,47.60
2019-05-05T17:03:04.181Z,46.20
2019-05-05T17:05:34.483Z,49.00
2019-05-05T17:08:04.530Z,48.90
2019-05-05T17:10:34.280Z,50.70
2019-05-05T17:13:04.459Z,49.80
2019-05-05T17:15:35.427Z,49.10
2019-05-05T17:18:08.145Z,47.30
2019-05-05T17:20:38.270Z,48.20
2019-05-05T17:23:08.321Z,47.70
2019-05-05T17:25:37.090Z,48.80
2019-05-05T17:28:05.500Z,50.20
2019-05-05T17:30:34.213Z,48.90
2019-05-05T17:33:03.822Z,48.00
2019-05-05T17:35:33.671Z,50.20
2019-05-05T17:38:10.025Z,51.00
2019-05-05T17:40:43.422Z,51.50
2019-05-05T17:43:31.599Z,54.50
2019-05-05T17:46:03.861Z,54.20
2019-05-05T17:48:36.593Z,54.00
2019-05-05T17:51:06.954Z,52.50
2019-05-05T17:53:40.071Z,54.60
2019-05-05T17:56:14.389Z,51.90
2019-05-05T17:58:44.483Z,54.60
2019-05-05T18:01:13.054Z,55.60
2019-05-05T18:03:43.543Z,53.90
2019-05-05T18:06:23.617Z,54.00
2019-05-05T18:08:54.069Z,56.30
2019-05-05T18:11:27.181Z,59.40
2019-05-05T18:13:59.917Z,59.80
2019-05-05T18:16:28.898Z,59.40
2019-05-05T18:18:57.362Z,59.90
2019-05-05T18:21:28.752Z,59.90
2019-05-05T18:23:56.015Z,63.30
2019-05-05T18:26:24.450Z,63.00
2019-05-05T18:28:54.067Z,64.20
2019-05-05T18:31:24.284Z,65.70
2019-05-05T18:33:54.316Z,69.00
2019-05-05T18:36:23.046Z,73.20
2019-05-05T18:38:53.672Z,76.50
2019-05-05T18:41:29.346Z,78.00
2019-05-05T18:44:03.824Z,80.70
2019-05-05T18:46:33.895Z,89.40
2019-05-05T18:49:04.254Z,90.80
2019-05-05T18:51:34.613Z,92.20
2019-05-05T18:54:04.189Z,95.80
2019-05-05T18:56:34.602Z,98.80
2019-05-05T18:59:06.231Z,99.90
2019-05-05T19:01:46.742Z,99.90
2019-05-05T19:04:16.794Z,99.90
2019-05-05T19:06:49.550Z,99.90
2019-05-05T19:09:22.134Z,99.90
2019-05-05T19:11:50.554Z,99.90
2019-05-05T19:14:18.970Z,99.90
2019-05-05T19:16:47.402Z,99.90
2019-05-05T19:19:15.868Z,99.90
2019-05-05T19:22:01.062Z,99.90
2019-05-05T19:24:29.692Z,99.90
2019-05-05T19:26:58.085Z,99.90
2019-05-05T19:29:26.496Z,99.90
2019-05-05T19:31:54.897Z,99.90
2019-05-05T19:34:24.054Z,99.90
2019-05-05T19:36:54.502Z,99.90
2019-05-05T19:39:24.265Z,99.90
2019-05-05T19:41:54.387Z,99.90
2019-05-05T19:44:25.891Z,99.90
2019-05-05T19:46:57.522Z,99.90
2019-05-05T19:49:25.930Z,99.90
2019-05-05T19:51:54.346Z,99.90
2019-05-05T19:54:23.021Z,99.90
2019-05-05T19:56:51.427Z,99.90
2019-05-05T19:59:19.825Z,99.90
2019-05-05T20:01:48.226Z,99.90
2019-05-05T20:04:16.652Z,99.90
2019-05-05T20:06:45.065Z,99.90
2019-05-05T20:09:14.104Z,99.90
2019-05-05T20:11:43.781Z,99.90
2019-05-05T20:14:14.865Z,99.90
2019-05-05T20:17:00.689Z,99.90
2019-05-05T20:19:31.039Z,99.90
2019-05-05T20:21:59.434Z,99.90
2019-05-05T20:24:27.866Z,99.90
2019-05-05T20:26:56.283Z,99.90
2019-05-05T20:29:24.689Z,99.90
2019-05-05T20:31:54.810Z,99.90
2019-05-05T20:34:30.893Z,99.90
2019-05-05T20:37:16.150Z,99.90
2019-05-05T20:39:44.566Z,99.90
2019-05-05T20:42:14.935Z,99.90
2019-05-05T20:44:43.779Z,99.90
2019-05-05T20:47:12.446Z,99.90
2019-05-05T20:49:40.906Z,99.90
2019-05-05T20:52:09.322Z,99.90
2019-05-05T20:54:37.730Z,99.90
2019-05-05T20:57:06.139Z,99.90
2019-05-05T20:59:34.542Z,99.90
2019-05-05T21:02:04.429Z,99.90
2019-05-05T21:04:34.511Z,99.90
2019-05-05T21:07:04.402Z,99.90
2019-05-05T21:09:34.517Z,99.90
2019-05-05T21:12:04.811Z,99.90
2019-05-05T21:14:37.259Z,99.90
2019-05-05T21:17:04.151Z,99.90
2019-05-05T21:19:34.610Z,99.90
2019-05-05T21:22:21.280Z,99.90
2019-05-05T21:24:50.044Z,99.90
2019-05-05T21:27:18.448Z,99.90
2019-05-05T21:29:46.845Z,99.90
2019-05-05T21:32:15.259Z,99.90
2019-05-05T21:34:44.399Z,99.90
2019-05-05T21:37:14.178Z,99.90
2019-05-05T21:39:42.850Z,99.90
2019-05-05T21:42:11.251Z,99.90
2019-05-05T21:44:39.641Z,99.90
2019-05-05T21:47:08.091Z,99.90
2019-05-05T21:49:36.486Z,99.90
2019-05-05T21:52:08.143Z,99.90
2019-05-05T21:54:38.444Z,99.90
2019-05-05T21:57:08.490Z,99.90
2019-05-05T21:59:36.888Z,99.90
2019-05-05T22:02:05.835Z,99.90
2019-05-05T22:04:34.270Z,99.90
2019-05-05T22:07:03.714Z,99.90
2019-05-05T22:09:32.377Z,99.90
2019-05-05T22:12:00.781Z,99.90
2019-05-05T22:14:29.248Z,99.90
2019-05-05T22:16:57.652Z,99.90
2019-05-05T22:19:27.705Z,99.90
2019-05-05T22:22:03.950Z,99.90
2019-05-05T22:24:33.404Z,99.90
2019-05-05T22:27:04.573Z,99.90
2019-05-05T22:29:34.217Z,99.90
2019-05-05T22:32:06.017Z,99.90
2019-05-05T22:34:33.510Z,99.90
2019-05-05T22:37:05.404Z,99.90
2019-05-05T22:39:33.822Z,99.90
2019-05-05T22:42:04.572Z,99.90
2019-05-05T22:44:33.857Z,99.90
2019-05-05T22:47:04.468Z,99.90
2019-05-05T22:49:32.665Z,99.90
2019-05-05T22:52:01.062Z,99.90
2019-05-05T22:54:29.467Z,99.90
2019-05-05T22:56:57.868Z,99.90
2019-05-05T22:59:26.274Z,99.90
2019-05-05T23:01:54.737Z,99.90
2019-05-05T23:04:41.015Z,99.90
2019-05-05T23:07:11.054Z,99.90
2019-05-05T23:09:39.466Z,99.90
2019-05-05T23:12:07.849Z,99.90
2019-05-05T23:14:36.252Z,99.90
2019-05-05T23:17:09.312Z,99.90
2019-05-05T23:19:44.130Z,99.90
2019-05-05T23:22:19.614Z,99.90
2019-05-05T23:24:49.657Z,99.90
2019-05-05T23:27:36.278Z,99.90
2019-05-05T23:30:07.959Z,99.90
2019-05-05T23:32:36.350Z,99.90
2019-05-05T23:35:04.997Z,99.90
2019-05-05T23:37:34.346Z,99.90
2019-05-05T23:40:03.788Z,99.90
2019-05-05T23:42:33.687Z,99.90
2019-05-05T23:45:04.257Z,99.90
2019-05-05T23:47:34.363Z,99.90
2019-05-05T23:50:04.486Z,99.90
2019-05-05T23:52:34.829Z,99.90
2019-05-05T23:55:04.012Z,99.90
2019-05-05T23:57:32.553Z,99.90
